Time;durP1;ratioP1;P1;durP2;ratioP2;P2;SDS_P1;SDS_P2;PMS_P1;PMS_P2;Temp;Humidity;BMP_temperature;BMP_pressure;BME280_temperature;BME280_humidity;BME280_pressure;Samples;Min_cycle;Max_cycle;Signal;HPM_P1;HPM_P2
2020/12/08 00:00:12;;;;;;;14.53;5.50;;;;;;;5.41;42.97;152534.53;1777486;80;21246;-67
2020/12/08 00:02:44;;;;;;;11.88;6.00;;;;;;;5.46;42.90;152547.59;1773597;79;21171;-67
2020/12/08 00:05:21;;;;;;;11.90;5.83;;;;;;;5.37;43.11;152522.80;1749078;81;21184;-67
2020/12/08 00:07:54;;;;;;;14.23;5.45;;;;;;;5.50;42.87;152556.72;1748202;82;21682;-67
2020/12/08 00:10:26;;;;;;;9.50;5.30;;;;;;;5.33;42.98;152512.34;1756449;81;21678;-67
2020/12/08 00:12:59;;;;;;;12.50;4.83;;;;;;;5.18;43.21;152471.92;1812966;79;21222;-67
2020/12/08 00:15:31;;;;;;;19.42;6.30;;;;;;;5.31;43.17;152505.84;1798292;79;21193;-67
2020/12/08 00:18:03;;;;;;;12.70;5.40;;;;;;;5.33;43.09;152512.34;1789665;79;21202;-67
2020/12/08 00:20:36;;;;;;;12.80;5.78;;;;;;;5.13;43.29;152460.19;1759485;80;21214;-67
2020/12/08 00:23:10;;;;;;;9.93;5.33;;;;;;;5.26;43.20;152494.09;1800875;80;21228;-67
2020/12/08 00:25:43;;;;;;;10.98;5.20;;;;;;;5.19;43.32;152475.86;1790857;79;21300;-67
2020/12/08 00:28:15;;;;;;;10.45;4.50;;;;;;;5.17;43.31;152470.64;1809156;79;21198;-67
2020/12/08 00:30:48;;;;;;;10.70;5.33;;;;;;;5.15;43.42;152464.13;1792160;80;21353;-67
2020/12/08 00:33:20;;;;;;;10.28;5.20;;;;;;;5.25;43.30;152490.22;1792297;79;21188;-67
2020/12/08 00:35:53;;;;;;;12.55;5.45;;;;;;;5.25;43.17;152491.50;1792042;79;21358;-67
2020/12/08 00:38:27;;;;;;;14.38;5.40;;;;;;;5.14;43.27;152462.81;1775528;79;21191;-67
2020/12/08 00:41:00;;;;;;;12.10;5.37;;;;;;;5.11;43.38;152453.69;1783957;80;21211;-67
2020/12/08 00:43:33;;;;;;;13.65;5.50;;;;;;;5.11;43.38;152453.69;1804758;79;21338;-67
2020/12/08 00:46:05;;;;;;;10.88;4.78;;;;;;;5.16;43.35;152466.69;1792740;79;21119;-67
2020/12/08 00:48:39;;;;;;;12.93;6.00;;;;;;;5.19;43.30;152475.86;1797285;79;21348;-67
2020/12/08 00:51:11;;;;;;;14.73;7.28;;;;;;;5.22;43.33;152483.66;1785570;79;21297;-67
2020/12/08 00:53:44;;;;;;;14.78;4.92;;;;;;;5.16;43.18;152468.03;1794950;79;21698;-67
2020/12/08 00:56:18;;;;;;;11.00;5.17;;;;;;;5.13;43.24;152458.91;1805731;79;21293;-67
2020/12/08 00:58:52;;;;;;;11.08;5.03;;;;;;;5.08;43.30;152447.19;1805433;79;21689;-68
2020/12/08 01:01:25;;;;;;;14.80;5.87;;;;;;;4.92;43.36;152404.16;1805270;79;21159;-67
2020/12/08 01:03:58;;;;;;;12.60;5.78;;;;;;;4.73;43.79;152354.59;1803635;79;21710;-67
2020/12/08 01:06:31;;;;;;;12.35;5.58;;;;;;;4.62;44.07;152325.92;1805365;79;21666;-67
2020/12/08 01:09:06;;;;;;;11.43;5.25;;;;;;;4.54;44.19;152305.09;1803024;79;21391;-67
2020/12/08 01:11:44;;;;;;;12.18;5.20;;;;;;;4.71;44.03;152350.70;1793783;79;21213;-67
2020/12/08 01:14:19;;;;;;;9.15;5.00;;;;;;;4.84;43.85;152383.27;1728791;81;21381;-68
2020/12/08 01:16:51;;;;;;;14.45;5.97;;;;;;;4.87;43.80;152391.09;1765321;81;21155;-66
2020/12/08 01:19:23;;;;;;;13.55;5.50;;;;;;;4.91;43.68;152401.55;1766225;81;21370;-67
2020/12/08 01:21:56;;;;;;;13.50;5.03;;;;;;;4.77;43.75;152366.31;1765722;80;21139;-67
2020/12/08 01:24:29;;;;;;;11.78;5.50;;;;;;;4.64;43.99;152331.16;1799834;79;21206;-67
2020/12/08 01:27:02;;;;;;;15.03;6.22;;;;;;;4.71;44.00;152349.37;1802235;79;21206;-67
2020/12/08 01:29:34;;;;;;;14.00;5.40;;;;;;;4.78;43.90;152367.66;1788125;79;21308;-67
2020/12/08 01:32:07;;;;;;;11.95;5.10;;;;;;;4.75;44.04;152359.81;1805761;79;21312;-67
2020/12/08 01:34:40;;;;;;;11.43;5.20;;;;;;;4.80;44.23;152374.16;1800646;79;21316;-67
2020/12/08 01:37:13;;;;;;;12.53;5.12;;;;;;;4.83;44.19;152381.98;1776996;79;21177;-67
2020/12/08 01:39:46;;;;;;;11.50;5.37;;;;;;;4.94;43.95;152409.33;1758467;80;21194;-67
2020/12/08 01:42:19;;;;;;;14.07;6.00;;;;;;;5.00;43.85;152425.00;1749890;82;21817;-67
2020/12/08 01:44:52;;;;;;;13.05;4.78;;;;;;;4.92;44.40;152404.16;1766083;81;21222;-68
2020/12/08 01:47:25;;;;;;;10.05;4.67;;;;;;;5.02;44.29;152431.52;1746800;81;21302;-67
2020/12/08 01:49:58;;;;;;;11.05;5.22;;;;;;;5.06;43.91;152440.63;1751225;81;21287;-67
2020/12/08 01:52:31;;;;;;;10.20;4.92;;;;;;;4.85;44.15;152385.88;1744923;81;21219;-67
2020/12/08 01:55:05;;;;;;;10.32;6.05;;;;;;;4.90;44.16;152398.94;1710625;82;21844;-66
2020/12/08 01:57:39;;;;;;;10.28;5.78;;;;;;;4.95;44.25;152411.95;1739595;82;21788;-65
2020/12/08 02:00:12;;;;;;;15.80;5.05;;;;;;;4.89;44.23;152396.33;1738886;82;21710;-65
2020/12/08 02:02:47;;;;;;;12.15;5.35;;;;;;;4.96;44.09;152415.89;1738060;82;21180;-65
2020/12/08 02:05:27;;;;;;;9.80;4.55;;;;;;;4.91;44.04;152401.55;1736825;81;21285;-67
2020/12/08 02:07:59;;;;;;;11.43;4.95;;;;;;;4.93;44.08;152408.06;1755515;81;21218;-67
2020/12/08 02:10:33;;;;;;;12.25;5.22;;;;;;;4.96;44.02;152414.56;1763010;81;21828;-67
2020/12/08 02:13:10;;;;;;;27.48;5.85;;;;;;;4.97;44.16;152417.17;1739964;81;21696;-67
2020/12/08 02:15:44;;;;;;;14.70;5.83;;;;;;;4.98;43.94;152421.06;1749210;81;21330;-67
2020/12/08 02:18:18;;;;;;;10.70;5.28;;;;;;;4.99;44.66;152422.39;1753741;81;21171;-67
2020/12/08 02:21:01;;;;;;;10.60;5.60;;;;;;;4.98;44.35;152419.78;1756642;81;21196;-67
2020/12/08 02:23:35;;;;;;;9.70;4.92;;;;;;;5.02;44.37;152431.52;1758817;81;21325;-67
2020/12/08 02:26:07;;;;;;;10.75;5.17;;;;;;;5.03;45.24;152434.13;1765589;81;21182;-67
2020/12/08 02:28:40;;;;;;;9.28;4.20;;;;;;;5.03;44.54;152434.13;1757948;80;21316;-67
2020/12/08 02:31:13;;;;;;;10.38;4.28;;;;;;;5.18;44.62;152473.25;1748542;81;21779;-67
2020/12/08 02:33:46;;;;;;;12.50;6.70;;;;;;;5.34;44.36;152514.95;1751893;81;21302;-67
2020/12/08 02:36:19;;;;;;;13.40;4.67;;;;;;;5.39;44.21;152529.30;1766699;81;21867;-67
2020/12/08 02:38:52;;;;;;;12.93;5.72;;;;;;;5.23;44.21;152484.98;1736360;81;21337;-68
2020/12/08 02:41:25;;;;;;;11.88;5.60;;;;;;;5.22;44.27;152483.66;1774415;81;21344;-67
2020/12/08 02:43:58;;;;;;;10.30;4.60;;;;;;;5.20;44.14;152478.48;1759707;81;21155;-68
2020/12/08 02:46:30;;;;;;;12.47;5.70;;;;;;;5.07;44.19;152444.56;1777411;79;21615;-67
2020/12/08 02:49:03;;;;;;;10.75;4.80;;;;;;;5.17;44.30;152469.31;1797229;79;21638;-67
2020/12/08 02:51:37;;;;;;;15.10;5.00;;;;;;;5.22;44.30;152483.66;1807864;79;21213;-67
2020/12/08 02:54:10;;;;;;;12.43;4.92;;;;;;;5.24;44.20;152488.88;1772824;79;21341;-67
2020/12/08 02:56:43;;;;;;;13.83;6.10;;;;;;;5.24;44.33;152488.88;1805662;79;21205;-67
2020/12/08 02:59:17;;;;;;;16.95;6.75;;;;;;;5.17;44.60;152469.31;1798235;79;21262;-67
2020/12/08 03:01:52;;;;;;;13.58;6.08;;;;;;;5.17;46.74;152470.64;1766092;81;21306;-67
2020/12/08 03:04:25;;;;;;;11.85;6.05;;;;;;;5.13;46.02;152460.19;1754751;81;21167;-67
2020/12/08 03:06:57;;;;;;;14.90;6.08;;;;;;;5.21;45.10;152479.77;1777883;81;21159;-67
2020/12/08 03:09:30;;;;;;;16.57;5.62;;;;;;;5.21;44.96;152481.05;1779857;80;21178;-68
2020/12/08 03:12:09;;;;;;;16.62;6.67;;;;;;;5.21;45.02;152481.05;1775552;80;21245;-67
2020/12/08 03:14:43;;;;;;;11.73;5.58;;;;;;;5.26;45.02;152494.09;1786386;79;21293;-67
2020/12/08 03:17:17;;;;;;;15.28;5.80;;;;;;;5.22;45.17;152482.38;1800549;80;21222;-67
2020/12/08 03:19:52;;;;;;;14.38;5.55;;;;;;;5.22;45.08;152483.66;1797512;80;21169;-67
2020/12/08 03:22:24;;;;;;;14.83;5.92;;;;;;;5.04;45.32;152435.41;1797638;80;21190;-67
2020/12/08 03:24:59;;;;;;;13.62;6.58;;;;;;;5.05;45.71;152438.02;1782035;80;21308;-67
2020/12/08 03:27:32;;;;;;;15.40;6.28;;;;;;;5.15;45.28;152464.13;1783527;80;21436;-68
2020/12/08 03:30:06;;;;;;;13.28;5.28;;;;;;;5.19;45.14;152474.53;1798310;80;21294;-67
2020/12/08 03:32:39;;;;;;;13.60;6.20;;;;;;;5.22;45.21;152482.38;1797998;80;21187;-68
2020/12/08 03:35:13;;;;;;;18.70;7.33;;;;;;;5.28;45.25;152498.00;1787916;80;21658;-67
2020/12/08 03:37:51;;;;;;;13.65;5.87;;;;;;;5.26;45.25;152492.81;1766717;81;21166;-67
2020/12/08 03:40:27;;;;;;;14.23;7.15;;;;;;;5.26;45.12;152492.81;1791930;79;21341;-68
2020/12/08 03:43:02;;;;;;;18.07;7.78;;;;;;;5.15;45.20;152465.41;1798980;80;21267;-67
2020/12/08 03:45:35;;;;;;;17.32;6.53;;;;;;;5.10;45.53;152452.36;1785559;80;21300;-67
2020/12/08 03:48:11;;;;;;;13.30;6.10;;;;;;;5.06;45.50;152440.63;1789259;80;21168;-68
2020/12/08 03:50:46;;;;;;;16.10;6.80;;;;;;;5.00;45.69;152426.28;1800051;79;21291;-68
2020/12/08 03:53:20;;;;;;;12.35;6.53;;;;;;;4.96;45.81;152414.56;1794314;79;21136;-68
2020/12/08 03:55:54;;;;;;;16.02;6.58;;;;;;;5.02;46.27;152430.23;1786657;79;21129;-68
2020/12/08 03:58:26;;;;;;;14.55;6.20;;;;;;;5.00;45.90;152426.28;1800130;79;21302;-68
2020/12/08 04:00:59;;;;;;;15.93;6.05;;;;;;;5.01;45.81;152427.63;1796245;79;21323;-68
2020/12/08 04:03:32;;;;;;;15.83;6.85;;;;;;;5.11;45.68;152454.97;1799034;79;21790;-68
2020/12/08 04:06:06;;;;;;;17.75;6.55;;;;;;;5.04;45.74;152435.41;1802165;79;21165;-67
2020/12/08 04:08:39;;;;;;;16.48;7.25;;;;;;;5.08;45.62;152447.19;1794243;79;21169;-67
2020/12/08 04:11:14;;;;;;;15.38;4.83;;;;;;;5.36;45.21;152520.17;1798589;78;21161;-68
2020/12/08 04:13:49;;;;;;;14.33;6.92;;;;;;;5.14;45.47;152461.53;1800822;79;21680;-68
2020/12/08 04:16:22;;;;;;;13.08;6.03;;;;;;;4.93;45.88;152406.72;1761337;80;21696;-67
2020/12/08 04:18:55;;;;;;;16.87;7.08;;;;;;;4.96;45.82;152414.56;1784499;80;21167;-67
2020/12/08 04:21:29;;;;;;;12.68;5.53;;;;;;;4.78;46.16;152368.94;1763365;80;21171;-67
2020/12/08 04:24:03;;;;;;;14.83;6.00;;;;;;;4.86;46.08;152389.78;1792866;79;21797;-67
2020/12/08 04:26:37;;;;;;;17.35;7.37;;;;;;;5.07;46.04;152443.23;1801001;80;21203;-67
2020/12/08 04:29:11;;;;;;;16.30;5.95;;;;;;;4.80;46.27;152374.16;1763883;81;21376;-67
2020/12/08 04:31:45;;;;;;;15.95;6.97;;;;;;;4.94;46.03;152409.33;1766552;80;21667;-67
2020/12/08 04:34:17;;;;;;;13.03;6.28;;;;;;;4.90;45.98;152398.94;1772988;79;21511;-67
2020/12/08 04:36:51;;;;;;;17.15;8.00;;;;;;;4.79;46.38;152370.27;1800144;80;21317;-68
2020/12/08 04:39:23;;;;;;;18.17;8.25;;;;;;;4.88;46.13;152395.00;1790928;80;21311;-67
2020/12/08 04:41:56;;;;;;;17.40;7.62;;;;;;;4.80;46.21;152372.87;1786890;80;21247;-67
2020/12/08 04:44:30;;;;;;;16.77;6.90;;;;;;;4.76;46.31;152363.72;1781739;80;21160;-66
2020/12/08 04:47:03;;;;;;;12.35;6.03;;;;;;;4.87;46.42;152392.37;1770667;80;21289;-67
2020/12/08 04:49:35;;;;;;;15.18;6.62;;;;;;;4.98;46.09;152421.06;1759322;81;21218;-67
2020/12/08 04:52:08;;;;;;;17.25;7.03;;;;;;;5.05;45.97;152439.34;1750071;81;21193;-67
2020/12/08 04:54:42;;;;;;;13.25;6.65;;;;;;;4.85;46.11;152387.22;1785293;80;21697;-68
2020/12/08 04:57:14;;;;;;;13.00;6.53;;;;;;;4.89;46.78;152396.33;1757628;80;21297;-67
2020/12/08 04:59:47;;;;;;;15.68;7.53;;;;;;;4.93;47.17;152408.06;1774408;81;21368;-66
2020/12/08 05:02:19;;;;;;;14.28;6.37;;;;;;;4.78;47.51;152368.94;1762479;81;21227;-67
2020/12/08 05:04:56;;;;;;;16.00;7.03;;;;;;;4.96;47.12;152415.89;1770742;80;21373;-67
2020/12/08 05:07:28;;;;;;;15.63;5.95;;;;;;;5.06;46.60;152440.63;1781585;80;21210;-67
2020/12/08 05:10:02;;;;;;;16.12;5.47;;;;;;;5.00;46.04;152425.00;1780809;80;21305;-67
2020/12/08 05:12:34;;;;;;;12.73;5.85;;;;;;;4.85;45.98;152385.88;1788005;80;21664;-67
2020/12/08 05:15:16;;;;;;;17.35;6.15;;;;;;;4.92;45.94;152404.16;1782793;80;21321;-67
2020/12/08 05:17:48;;;;;;;15.10;5.47;;;;;;;4.97;46.03;152418.50;1790678;80;21297;-67
2020/12/08 05:20:22;;;;;;;14.75;6.50;;;;;;;4.90;45.98;152400.22;1762264;81;21210;-67
2020/12/08 05:22:56;;;;;;;18.70;6.35;;;;;;;4.48;46.48;152290.75;1749491;81;21168;-67
2020/12/08 05:25:30;;;;;;;15.05;7.85;;;;;;;4.73;46.15;152354.59;1756738;81;21216;-65
2020/12/08 05:28:03;;;;;;;15.53;6.80;;;;;;;4.81;46.02;152375.44;1759608;80;21177;-69
2020/12/08 05:30:40;;;;;;;11.65;5.62;;;;;;;4.57;46.97;152314.20;1735213;82;21709;-72
2020/12/08 05:33:17;;;;;;;11.63;5.92;;;;;;;4.45;46.69;152282.92;1761202;81;21169;-74
2020/12/08 05:35:50;;;;;;;13.25;6.12;;;;;;;4.57;46.52;152312.92;1755833;81;21709;-76
2020/12/08 05:38:22;;;;;;;14.10;5.85;;;;;;;4.51;46.67;152298.53;1740780;81;21288;-73
2020/12/08 05:40:54;;;;;;;11.05;5.47;;;;;;;4.47;46.55;152288.14;1753056;81;21314;-77
2020/12/08 05:43:29;;;;;;;10.95;5.53;;;;;;;4.54;46.62;152306.38;1758199;81;21691;-75
2020/12/08 05:46:04;;;;;;;12.25;6.95;;;;;;;4.47;46.77;152288.14;1720952;80;21665;-75
2020/12/08 05:48:36;;;;;;;11.55;5.42;;;;;;;4.56;46.84;152310.31;1748827;80;21675;-69
2020/12/08 05:51:11;;;;;;;10.20;5.45;;;;;;;4.58;47.05;152315.48;1784342;80;21369;-73
2020/12/08 05:53:43;;;;;;;11.30;5.70;;;;;;;4.53;47.08;152303.75;1741751;81;21311;-68
2020/12/08 05:56:15;;;;;;;11.78;5.67;;;;;;;4.59;47.19;152318.09;1724678;81;21328;-72
2020/12/08 05:58:57;;;;;;;15.30;6.60;;;;;;;4.73;47.31;152354.59;1732834;80;21788;-74
2020/12/08 06:01:29;;;;;;;11.60;5.25;;;;;;;4.50;47.41;152295.97;1777282;79;21222;-75
2020/12/08 06:04:03;;;;;;;12.78;5.62;;;;;;;4.60;47.79;152320.70;1740802;81;21345;-75
2020/12/08 06:06:35;;;;;;;13.98;6.65;;;;;;;4.66;49.36;152337.66;1720232;82;21731;-75
2020/12/08 06:09:07;;;;;;;15.18;5.90;;;;;;;4.77;48.18;152366.31;1687794;81;21341;-70
2020/12/08 06:11:40;;;;;;;13.70;6.47;;;;;;;4.47;48.32;152286.81;1763539;81;21820;-74
2020/12/08 06:14:13;;;;;;;11.43;5.80;;;;;;;4.28;51.91;152237.31;1757684;81;21667;-72
2020/12/08 06:16:46;;;;;;;13.30;5.72;;;;;;;4.42;50.80;152272.48;1754126;81;21794;-76
2020/12/08 06:19:18;;;;;;;13.43;5.78;;;;;;;4.59;49.66;152319.42;1779787;80;21305;-79
2020/12/08 06:21:51;;;;;;;13.15;6.55;;;;;;;4.81;48.79;152375.44;1748212;81;21211;-70
2020/12/08 06:24:28;;;;;;;14.03;5.78;;;;;;;4.69;52.03;152344.16;1745447;80;21186;-69
2020/12/08 06:27:10;;;;;;;13.32;5.85;;;;;;;4.60;51.09;152322.03;1709903;83;21382;-67
2020/12/08 06:29:52;;;;;;;12.07;6.33;;;;;;;4.73;53.66;152355.92;1727758;81;21392;-69
2020/12/08 06:32:31;;;;;;;10.55;5.42;;;;;;;4.76;53.60;152363.72;1761775;79;21547;-72
2020/12/08 06:35:09;;;;;;;14.13;6.25;;;;;;;4.69;64.15;152345.48;1750582;79;21224;-66
2020/12/08 06:37:55;;;;;;;18.20;7.58;;;;;;;5.02;61.53;152431.52;1736105;79;21163;-67
2020/12/08 06:40:29;;;;;;;18.57;6.62;;;;;;;4.77;58.55;152365.03;1759498;81;21698;-69
2020/12/08 06:43:16;;;;;;;15.63;6.35;;;;;;;4.71;57.88;152349.37;1753754;81;21242;-68
2020/12/08 06:46:11;;;;;;;23.30;7.22;;;;;;;4.76;59.50;152362.44;1774164;79;21329;-68
2020/12/08 06:49:05;;;;;;;20.23;7.15;;;;;;;4.86;57.66;152389.78;1790190;78;21408;-69
2020/12/08 06:51:37;;;;;;;18.67;6.83;;;;;;;4.80;55.64;152374.16;1777251;79;21686;-67
2020/12/08 06:54:16;;;;;;;17.82;7.12;;;;;;;5.03;58.32;152434.13;1780158;79;21238;-68
2020/12/08 06:56:48;;;;;;;36.28;14.18;;;;;;;4.93;60.44;152406.72;1781337;79;21539;-69
2020/12/08 06:59:24;;;;;;;25.57;9.30;;;;;;;4.67;62.28;152340.25;1774423;79;21162;-68
2020/12/08 07:02:00;;;;;;;17.85;8.50;;;;;;;4.59;60.22;152318.09;1777471;79;21685;-68
2020/12/08 07:04:33;;;;;;;16.15;6.95;;;;;;;4.85;61.59;152387.22;1789281;79;21139;-68
2020/12/08 07:07:05;;;;;;;18.05;7.87;;;;;;;4.88;60.51;152393.72;1790543;79;21204;-69
2020/12/08 07:09:37;;;;;;;21.70;7.55;;;;;;;4.94;59.93;152410.67;1803330;79;21328;-66
2020/12/08 07:12:09;;;;;;;20.40;8.33;;;;;;;4.86;61.64;152388.50;1790575;79;21173;-69
2020/12/08 07:14:42;;;;;;;18.10;8.13;;;;;;;4.63;62.82;152329.81;1793230;79;21213;-67
2020/12/08 07:17:15;;;;;;;19.27;7.05;;;;;;;4.64;65.14;152331.16;1785807;79;21357;-75
2020/12/08 07:19:47;;;;;;;16.67;7.83;;;;;;;4.67;61.37;152340.25;1797046;79;21305;-66
2020/12/08 07:22:19;;;;;;;19.17;7.65;;;;;;;5.38;64.96;152526.69;1796709;79;21156;-66
2020/12/08 07:24:52;;;;;;;13.18;7.35;;;;;;;5.56;59.88;152573.67;1798161;79;21194;-66
2020/12/08 07:27:25;;;;;;;22.45;8.25;;;;;;;5.68;59.92;152604.98;1793690;79;21170;-66
2020/12/08 07:29:59;;;;;;;16.30;7.58;;;;;;;5.71;59.85;152611.50;1786685;79;21189;-68
2020/12/08 07:32:32;;;;;;;17.85;7.62;;;;;;;5.88;61.75;152655.94;1779655;79;21214;-67
2020/12/08 07:35:05;;;;;;;22.73;8.03;;;;;;;6.06;59.55;152702.89;1797503;79;21297;-66
2020/12/08 07:37:38;;;;;;;22.55;10.38;;;;;;;6.20;59.39;152740.72;1793619;79;21348;-67
2020/12/08 07:40:12;;;;;;;22.67;9.80;;;;;;;6.32;59.42;152773.39;1808163;79;21218;-72
2020/12/08 07:42:49;;;;;;;38.50;14.43;;;;;;;6.13;57.58;152722.47;1776820;80;21492;-70
2020/12/08 07:45:21;;;;;;;23.77;10.50;;;;;;;6.25;59.79;152755.08;1785107;79;21384;-69
2020/12/08 07:48:00;;;;;;;25.68;11.10;;;;;;;6.40;58.89;152792.97;1801054;79;21344;-69
2020/12/08 07:50:33;;;;;;;31.50;11.40;;;;;;;6.12;63.54;152719.86;1801978;79;21347;-70
2020/12/08 07:53:08;;;;;;;39.18;14.58;;;;;;;6.07;61.95;152706.83;1794601;79;21361;-70
2020/12/08 07:55:46;;;;;;;25.25;11.10;;;;;;;6.12;61.81;152719.86;1798183;79;21352;-71
2020/12/08 07:58:18;;;;;;;21.85;8.33;;;;;;;6.34;61.21;152778.62;1800773;79;21301;-71
2020/12/08 08:00:51;;;;;;;20.43;9.45;;;;;;;6.30;61.50;152766.88;1789532;79;21732;-69
2020/12/08 08:03:24;;;;;;;23.30;9.15;;;;;;;6.67;60.19;152864.78;1805799;79;21285;-71
2020/12/08 08:05:58;;;;;;;21.25;9.25;;;;;;;6.71;61.93;152873.92;1767713;80;21237;-70
2020/12/08 08:08:31;;;;;;;22.60;8.75;;;;;;;6.66;65.31;152862.17;1807843;79;21739;-70
2020/12/08 08:11:05;;;;;;;34.25;12.50;;;;;;;6.63;62.21;152854.33;1782407;79;21332;-69
2020/12/08 08:13:37;;;;;;;27.73;9.13;;;;;;;6.47;65.03;152811.23;1751992;79;21216;-70
2020/12/08 08:16:13;;;;;;;18.60;8.15;;;;;;;6.63;63.77;152854.33;1801071;79;21289;-69
2020/12/08 08:18:45;;;;;;;24.65;11.57;;;;;;;6.74;63.04;152883.05;1790150;79;21197;-68
2020/12/08 10:40:42;;;;;;;14.38;5.92;;;;;;;7.35;85.53;153042.44;1803719;77;28344;-65
2020/12/08 10:43:15;;;;;;;17.75;8.10;;;;;;;7.43;80.02;153063.34;1772734;79;21257;-66
2020/12/08 10:45:49;;;;;;;16.32;6.85;;;;;;;7.33;78.21;153037.20;1790535;78;21325;-67
2020/12/08 10:48:25;;;;;;;12.43;5.83;;;;;;;7.13;75.12;152986.23;1795016;78;21791;-66
2020/12/08 10:50:59;;;;;;;14.80;5.47;;;;;;;6.78;71.55;152893.52;1761416;79;21230;-64
2020/12/08 10:53:32;;;;;;;12.30;6.45;;;;;;;6.81;69.02;152901.36;1793524;78;21165;-66
2020/12/08 10:56:04;;;;;;;14.23;6.60;;;;;;;6.99;70.72;152947.08;1794042;79;21153;-62
2020/12/08 10:58:39;;;;;;;18.48;7.78;;;;;;;7.03;70.65;152957.50;1762816;80;21367;-64
2020/12/08 11:01:14;;;;;;;14.40;6.97;;;;;;;7.03;68.93;152957.50;1796735;78;21145;-62
2020/12/08 11:03:47;;;;;;;17.10;7.12;;;;;;;6.81;68.32;152900.03;1773541;78;21675;-65
2020/12/08 11:06:25;;;;;;;19.12;7.55;;;;;;;6.83;69.68;152906.55;1766707;80;21627;-63
2020/12/08 11:08:57;;;;;;;16.93;7.12;;;;;;;6.86;70.72;152913.11;1794345;78;21217;-64
2020/12/08 11:11:32;;;;;;;13.08;5.40;;;;;;;6.91;68.63;152927.48;1764305;80;21202;-64
2020/12/08 11:14:05;;;;;;;20.45;7.62;;;;;;;6.85;66.91;152910.50;1795730;78;21467;-64
2020/12/08 11:16:38;;;;;;;13.95;6.22;;;;;;;6.78;67.58;152892.19;1797584;78;21224;-63
2020/12/08 11:19:10;;;;;;;19.12;7.40;;;;;;;6.89;65.99;152922.25;1802022;77;21216;-63
2020/12/08 11:21:43;;;;;;;22.58;9.53;;;;;;;6.98;64.29;152945.75;1775807;79;21224;-64
2020/12/08 11:24:17;;;;;;;17.95;8.23;;;;;;;7.01;63.05;152953.59;1793514;78;21244;-62
2020/12/08 11:26:51;;;;;;;19.77;8.20;;;;;;;7.19;64.93;153000.61;1760383;79;21423;-63
2020/12/08 11:29:23;;;;;;;21.48;8.73;;;;;;;7.19;63.75;153001.94;1775699;78;21266;-65
2020/12/08 11:31:56;;;;;;;17.67;7.10;;;;;;;7.37;62.41;153047.67;1752784;79;21227;-65
2020/12/08 11:34:28;;;;;;;19.92;7.92;;;;;;;7.26;61.81;153018.94;1750145;80;21271;-66
2020/12/08 11:37:00;;;;;;;19.20;7.47;;;;;;;7.12;62.12;152981.06;1747743;81;21406;-67
2020/12/08 11:39:33;;;;;;;15.68;6.87;;;;;;;7.13;62.07;152986.23;1741462;80;21319;-65
2020/12/08 11:42:07;;;;;;;17.02;6.78;;;;;;;6.89;60.31;152922.25;1744910;80;21268;-63
2020/12/08 11:44:41;;;;;;;17.10;6.80;;;;;;;7.23;63.64;153011.08;1742342;81;21815;-64
2020/12/08 11:47:15;;;;;;;17.20;6.60;;;;;;;7.28;65.86;153024.17;1746864;81;22540;-64
2020/12/08 11:49:49;;;;;;;14.75;6.30;;;;;;;7.35;66.37;153042.44;1754953;79;21208;-65
2020/12/08 11:52:22;;;;;;;16.30;6.53;;;;;;;7.44;65.53;153067.28;1744393;80;21200;-66
2020/12/08 11:54:54;;;;;;;15.43;6.35;;;;;;;7.41;61.73;153058.09;1741585;81;21715;-63
2020/12/08 11:57:26;;;;;;;18.23;6.90;;;;;;;7.32;60.83;153034.59;1742300;81;21566;-62
2020/12/08 11:59:59;;;;;;;16.23;6.70;;;;;;;7.38;62.72;153050.30;1749158;81;21213;-67
2020/12/08 12:02:31;;;;;;;16.30;6.72;;;;;;;7.19;59.52;153001.94;1747509;81;21169;-63
2020/12/08 12:05:03;;;;;;;17.95;7.47;;;;;;;6.94;60.40;152935.33;1748298;81;21233;-67
2020/12/08 12:07:37;;;;;;;16.12;6.62;;;;;;;7.09;60.93;152973.20;1744405;81;22136;-71
2020/12/08 12:10:10;;;;;;;15.18;6.20;;;;;;;6.64;58.91;152856.94;1747279;81;21232;-68
2020/12/08 12:12:42;;;;;;;15.65;6.65;;;;;;;6.58;60.52;152841.30;1742649;79;21196;-69
2020/12/08 12:15:15;;;;;;;18.75;7.50;;;;;;;6.57;62.11;152837.34;1744825;81;21221;-71
2020/12/08 12:17:47;;;;;;;18.07;6.95;;;;;;;6.43;61.22;152802.11;1744957;81;21217;-69
2020/12/08 12:20:20;;;;;;;14.53;6.47;;;;;;;6.45;62.71;152807.34;1743896;81;21726;-69
2020/12/08 12:22:52;;;;;;;17.52;6.50;;;;;;;6.44;61.21;152804.72;1748751;81;21259;-65
2020/12/08 12:25:25;;;;;;;15.65;6.80;;;;;;;6.39;61.07;152790.37;1753642;80;21243;-63
2020/12/08 12:27:58;;;;;;;14.45;5.62;;;;;;;6.37;60.79;152786.42;1752642;79;21347;-68
2020/12/08 12:30:35;;;;;;;16.32;6.45;;;;;;;6.43;61.22;152800.78;1745271;81;21181;-67
2020/12/08 12:33:11;;;;;;;16.45;6.65;;;;;;;6.30;61.74;152766.88;1751103;80;21704;-71
2020/12/08 12:35:46;;;;;;;15.30;6.15;;;;;;;6.22;62.22;152745.95;1743436;80;21188;-70
2020/12/08 12:38:27;;;;;;;15.10;6.37;;;;;;;6.20;62.49;152740.72;1750674;80;21255;-69
2020/12/08 12:41:06;;;;;;;16.20;7.40;;;;;;;6.04;61.00;152699.00;1752313;80;21378;-67
2020/12/08 12:43:42;;;;;;;13.95;6.80;;;;;;;6.20;63.69;152739.44;1754291;81;21557;-70
2020/12/08 12:46:20;;;;;;;16.60;6.65;;;;;;;5.96;60.66;152678.08;1746195;81;21232;-77
2020/12/08 12:48:56;;;;;;;14.87;6.03;;;;;;;5.95;61.85;152674.19;1753080;81;22727;-72
2020/12/08 12:51:30;;;;;;;12.73;5.97;;;;;;;5.85;61.28;152649.38;1748693;81;21200;-70
2020/12/08 12:54:05;;;;;;;15.78;6.87;;;;;;;5.94;62.61;152671.56;1742586;81;21252;-66
2020/12/08 12:56:48;;;;;;;21.25;7.97;;;;;;;6.08;64.20;152709.41;1748661;81;21747;-67
2020/12/08 12:59:32;;;;;;;21.82;8.78;;;;;;;6.14;66.42;152723.75;1747698;80;21331;-68
2020/12/08 13:02:07;;;;;;;12.88;6.85;;;;;;;6.15;64.30;152727.70;1743227;81;21231;-70
2020/12/08 13:04:40;;;;;;;16.05;6.85;;;;;;;6.23;63.80;152747.28;1748169;81;21215;-69
2020/12/08 13:07:17;;;;;;;19.92;7.95;;;;;;;6.18;63.10;152735.55;1748040;81;21199;-68
2020/12/08 13:09:50;;;;;;;17.32;7.15;;;;;;;6.28;65.40;152761.66;1756733;79;21829;-76
2020/12/08 13:12:24;;;;;;;18.12;7.67;;;;;;;6.36;64.89;152783.84;1741549;81;21172;-72
2020/12/08 13:14:56;;;;;;;20.82;8.08;;;;;;;6.35;63.25;152781.23;1746078;81;21244;-72
2020/12/08 13:17:29;;;;;;;22.85;8.43;;;;;;;6.45;64.60;152807.34;1747423;80;21707;-74
2020/12/08 13:20:02;;;;;;;25.55;9.58;;;;;;;6.54;64.25;152829.50;1745687;80;21788;-67
2020/12/08 13:22:36;;;;;;;20.25;8.40;;;;;;;6.48;63.77;152813.86;1743374;81;21770;-72
2020/12/08 13:25:09;;;;;;;23.95;9.38;;;;;;;6.42;64.18;152799.50;1744248;81;21471;-70
2020/12/08 13:27:42;;;;;;;27.77;10.93;;;;;;;6.24;64.26;152749.91;1742580;81;21173;-69
2020/12/08 13:30:17;;;;;;;20.95;8.45;;;;;;;6.35;67.25;152779.91;1743952;81;21180;-71
2020/12/08 13:32:52;;;;;;;18.90;7.72;;;;;;;6.24;66.77;152751.19;1744259;81;21216;-71
2020/12/08 13:35:29;;;;;;;16.25;7.33;;;;;;;6.32;64.79;152772.06;1745234;81;21279;-70
2020/12/08 13:38:05;;;;;;;19.25;7.33;;;;;;;6.32;64.26;152772.06;1749723;80;21188;-70
2020/12/08 13:40:40;;;;;;;16.62;8.03;;;;;;;6.35;65.07;152781.23;1748844;80;21216;-71
2020/12/08 13:43:14;;;;;;;16.77;7.35;;;;;;;6.52;67.04;152825.59;1746587;80;21196;-69
2020/12/08 13:45:48;;;;;;;17.40;7.37;;;;;;;6.53;66.47;152826.94;1746408;81;21237;-72
2020/12/08 13:48:23;;;;;;;21.93;7.92;;;;;;;6.33;67.46;152776.00;1747541;80;21578;-65
2020/12/08 13:51:00;;;;;;;20.08;8.35;;;;;;;6.41;65.39;152796.88;1742602;80;21193;-68
2020/12/08 13:53:34;;;;;;;16.32;7.42;;;;;;;6.34;65.23;152777.28;1753314;80;21267;-67
2020/12/08 13:56:07;;;;;;;15.40;7.67;;;;;;;6.22;67.49;152744.67;1744365;80;21715;-70
2020/12/08 13:58:41;;;;;;;17.57;7.15;;;;;;;6.24;66.72;152749.91;1743264;81;22383;-69
2020/12/08 14:01:18;;;;;;;24.12;9.20;;;;;;;6.31;69.57;152770.78;1749287;81;21180;-68
2020/12/08 14:03:54;;;;;;;19.92;8.45;;;;;;;6.49;68.30;152817.75;1747785;79;21228;-73
2020/12/08 14:06:29;;;;;;;23.50;10.48;;;;;;;6.63;66.76;152854.33;1748224;81;21205;-72
2020/12/08 14:09:02;;;;;;;20.27;9.53;;;;;;;6.63;64.95;152854.33;1751980;80;21175;-72
2020/12/08 14:11:35;;;;;;;22.10;8.78;;;;;;;6.68;65.44;152866.06;1750321;81;21236;-69
2020/12/08 14:14:11;;;;;;;20.05;8.08;;;;;;;6.61;64.91;152849.09;1742465;81;21216;-67